createdAt,value
2022-11-17T00:00:40.214Z,0.00
2022-11-17T00:01:41.166Z,0.00
2022-11-17T00:02:41.164Z,0.00
2022-11-17T00:03:41.039Z,0.00
2022-11-17T00:04:40.962Z,0.00
2022-11-17T00:05:40.900Z,0.00
2022-11-17T00:06:40.840Z,0.00
2022-11-17T00:07:40.766Z,0.00
2022-11-17T00:08:40.707Z,0.00
2022-11-17T00:09:40.620Z,0.00
2022-11-17T00:10:40.581Z,0.00
2022-11-17T00:11:40.551Z,0.00
2022-11-17T00:12:40.431Z,0.00
2022-11-17T00:13:40.371Z,0.00
2022-11-17T00:14:40.329Z,0.00
2022-11-17T00:15:40.254Z,0.00
2022-11-17T00:16:40.194Z,0.00
2022-11-17T00:17:40.136Z,0.00
2022-11-17T00:18:40.075Z,0.00
2022-11-17T00:19:39.988Z,0.00
2022-11-17T00:20:39.916Z,0.00
2022-11-17T00:21:39.874Z,0.00
2022-11-17T00:22:39.808Z,0.00
2022-11-17T00:23:39.745Z,0.00
2022-11-17T00:24:39.668Z,0.00
2022-11-17T00:25:39.597Z,0.00
2022-11-17T00:26:39.547Z,0.00
2022-11-17T00:27:39.494Z,0.00
2022-11-17T00:28:39.432Z,0.00
2022-11-17T00:29:39.585Z,0.00
2022-11-17T00:30:42.492Z,0.00
2022-11-17T00:31:39.233Z,0.00
2022-11-17T00:32:39.151Z,0.00
2022-11-17T00:33:39.103Z,0.00
2022-11-17T00:34:39.030Z,0.00
2022-11-17T00:35:40.190Z,0.00
2022-11-17T00:36:38.898Z,0.00
2022-11-17T00:37:38.853Z,0.00
2022-11-17T00:38:38.766Z,0.00
2022-11-17T00:39:38.706Z,0.00
2022-11-17T00:40:38.651Z,0.00
2022-11-17T00:41:38.863Z,0.00
2022-11-17T00:42:38.531Z,0.00
2022-11-17T00:43:39.187Z,0.00
2022-11-17T00:44:38.411Z,0.00
2022-11-17T00:45:38.301Z,0.00
2022-11-17T00:46:38.269Z,0.00
2022-11-17T00:47:38.218Z,0.00
2022-11-17T00:48:38.139Z,0.00
2022-11-17T00:49:38.078Z,0.00
2022-11-17T00:50:38.005Z,0.00
2022-11-17T00:51:37.933Z,0.00
2022-11-17T00:52:37.894Z,0.00
2022-11-17T00:55:56.274Z,0.00
2022-11-17T00:56:57.190Z,0.00
2022-11-17T00:57:57.131Z,0.00
2022-11-17T00:58:57.074Z,0.00
2022-11-17T00:59:57.018Z,0.00
2022-11-17T01:00:56.939Z,0.00
2022-11-17T01:01:56.896Z,0.00
2022-11-17T01:02:56.793Z,0.00
2022-11-17T01:03:56.763Z,0.00
2022-11-17T01:04:56.681Z,0.00
2022-11-17T01:05:56.589Z,0.00
2022-11-17T01:06:56.673Z,0.00
2022-11-17T01:07:56.472Z,0.00
2022-11-17T01:08:56.424Z,0.00
2022-11-17T01:09:56.372Z,0.00
2022-11-17T01:10:56.301Z,0.00
2022-11-17T01:11:56.242Z,0.00
2022-11-17T01:15:14.626Z,0.00
2022-11-17T01:16:15.547Z,0.00
2022-11-17T01:17:15.493Z,0.00
2022-11-17T01:18:15.425Z,0.00
2022-11-17T01:19:15.361Z,0.00
2022-11-17T01:20:15.288Z,0.00
2022-11-17T01:21:15.238Z,0.00
2022-11-17T01:22:15.163Z,0.00
2022-11-17T01:23:15.085Z,0.00
2022-11-17T01:24:15.042Z,0.00
2022-11-17T01:25:14.985Z,0.00
2022-11-17T01:26:14.919Z,0.00
2022-11-17T01:27:14.834Z,0.00
2022-11-17T01:28:14.764Z,0.00
2022-11-17T01:29:14.722Z,0.00
2022-11-17T01:30:14.638Z,0.00
2022-11-17T01:31:14.575Z,0.00
2022-11-17T01:32:35.484Z,0.00
2022-11-17T01:33:14.453Z,0.00
2022-11-17T01:34:14.374Z,0.00
2022-11-17T01:35:14.342Z,0.00
2022-11-17T01:36:14.269Z,0.00
2022-11-17T01:37:14.185Z,0.00
2022-11-17T01:38:14.147Z,0.00
2022-11-17T01:39:14.063Z,0.00
2022-11-17T01:40:14.002Z,0.00
2022-11-17T01:41:13.947Z,0.00
2022-11-17T01:42:13.878Z,0.00
2022-11-17T01:43:14.550Z,0.00
2022-11-17T01:44:13.787Z,0.00
2022-11-17T01:45:13.696Z,0.00
2022-11-17T01:46:13.628Z,0.00
2022-11-17T01:47:13.552Z,0.00
2022-11-17T01:48:13.497Z,0.00
2022-11-17T01:49:13.449Z,0.00
2022-11-17T01:52:31.809Z,0.00
2022-11-17T01:53:33.060Z,0.00
2022-11-17T01:54:32.684Z,0.00
2022-11-17T01:55:32.603Z,0.00
2022-11-17T01:56:32.560Z,0.00
2022-11-17T01:57:32.526Z,0.00
2022-11-17T01:58:32.425Z,0.00
2022-11-17T01:59:32.368Z,0.00
2022-11-17T02:00:32.298Z,0.00
2022-11-17T02:01:32.309Z,0.00
2022-11-17T02:02:32.171Z,0.00
2022-11-17T02:03:32.329Z,0.00
2022-11-17T02:04:32.048Z,0.00
2022-11-17T02:05:31.994Z,0.00
2022-11-17T02:06:31.919Z,0.00
2022-11-17T02:07:31.941Z,0.00
2022-11-17T02:08:31.792Z,0.00
2022-11-17T02:09:31.726Z,0.00
2022-11-17T02:10:31.672Z,0.00
2022-11-17T02:11:31.603Z,0.00
2022-11-17T02:12:31.548Z,0.00
2022-11-17T02:13:31.541Z,0.00
2022-11-17T02:14:31.423Z,0.00
2022-11-17T02:15:31.616Z,0.00
2022-11-17T02:16:31.294Z,0.00
2022-11-17T02:17:31.233Z,0.00
2022-11-17T02:18:31.168Z,0.00
2022-11-17T02:19:31.101Z,0.00
2022-11-17T02:20:31.026Z,0.00
2022-11-17T02:21:30.956Z,0.00
2022-11-17T02:22:30.896Z,0.00
2022-11-17T02:23:30.861Z,0.00
2022-11-17T02:24:30.758Z,0.00
2022-11-17T02:25:30.709Z,0.00
2022-11-17T02:26:30.618Z,0.00
2022-11-17T02:27:30.601Z,0.00
2022-11-17T02:28:30.505Z,0.00
2022-11-17T02:29:30.468Z,0.00
2022-11-17T02:30:30.398Z,0.00
2022-11-17T02:31:31.258Z,0.00
2022-11-17T02:32:30.276Z,0.00
2022-11-17T02:33:30.200Z,0.00
2022-11-17T02:34:30.127Z,0.00
2022-11-17T02:35:30.079Z,0.00
2022-11-17T02:36:29.997Z,0.00
2022-11-17T02:37:29.920Z,0.00
2022-11-17T02:38:29.895Z,0.00
2022-11-17T02:39:29.838Z,0.00
2022-11-17T02:40:29.757Z,0.00
2022-11-17T02:41:29.688Z,0.00
2022-11-17T02:42:29.601Z,0.00
2022-11-17T02:43:29.540Z,0.00
2022-11-17T02:44:29.502Z,0.00
2022-11-17T02:45:50.417Z,0.00
2022-11-17T02:46:29.352Z,0.00
2022-11-17T02:47:29.285Z,0.00
2022-11-17T02:48:29.246Z,0.00
2022-11-17T02:49:29.160Z,0.00
2022-11-17T02:50:29.088Z,0.00
2022-11-17T02:51:29.074Z,0.00
2022-11-17T02:52:28.984Z,0.00
2022-11-17T02:53:28.914Z,0.00
2022-11-17T02:54:28.859Z,0.00
2022-11-17T02:55:28.785Z,0.00
2022-11-17T02:56:28.769Z,0.00
2022-11-17T02:57:28.686Z,0.00
2022-11-17T02:58:28.622Z,0.00
2022-11-17T02:59:28.543Z,0.00
2022-11-17T03:00:28.462Z,0.00
2022-11-17T03:01:28.493Z,0.00
2022-11-17T03:02:28.325Z,0.00
2022-11-17T03:03:53.244Z,0.00
2022-11-17T03:04:28.215Z,0.00
2022-11-17T03:05:28.154Z,0.00
2022-11-17T03:06:28.073Z,0.00
2022-11-17T03:07:28.047Z,0.00
2022-11-17T03:08:32.739Z,0.00
2022-11-17T03:09:27.922Z,0.00
2022-11-17T03:10:27.824Z,0.00
2022-11-17T03:11:27.772Z,0.00
2022-11-17T03:12:27.702Z,0.00
2022-11-17T03:13:27.650Z,0.00
2022-11-17T03:14:27.551Z,0.00
2022-11-17T03:15:27.507Z,0.00
2022-11-17T03:16:27.453Z,0.00
2022-11-17T03:17:27.373Z,0.00
2022-11-17T03:18:27.323Z,0.00
2022-11-17T03:19:27.250Z,0.00
2022-11-17T03:20:27.177Z,0.00
2022-11-17T03:21:27.148Z,0.00
2022-11-17T03:22:27.070Z,0.00
2022-11-17T03:23:27.001Z,0.00
2022-11-17T03:24:26.940Z,0.00
2022-11-17T03:25:26.868Z,0.00
2022-11-17T03:26:26.796Z,0.00
2022-11-17T03:27:26.748Z,0.00
2022-11-17T03:28:26.678Z,0.00
2022-11-17T03:29:26.606Z,0.00
2022-11-17T03:30:26.555Z,0.00
2022-11-17T03:31:26.494Z,0.00
2022-11-17T03:32:26.426Z,0.00
2022-11-17T03:33:26.378Z,0.00
2022-11-17T03:34:26.271Z,0.00
2022-11-17T03:35:26.213Z,0.00
2022-11-17T03:36:26.145Z,0.00
2022-11-17T03:37:26.097Z,0.00
2022-11-17T03:38:26.015Z,0.00
2022-11-17T03:39:46.931Z,0.00
2022-11-17T03:40:25.889Z,0.00
2022-11-17T03:41:25.829Z,0.00
2022-11-17T03:42:25.788Z,0.00
2022-11-17T03:43:25.687Z,0.00
2022-11-17T03:44:25.627Z,0.00
2022-11-17T03:45:25.594Z,0.00
2022-11-17T03:46:25.524Z,0.00
2022-11-17T03:47:25.465Z,0.00
2022-11-17T03:48:25.385Z,0.00
2022-11-17T03:49:25.334Z,0.00
2022-11-17T03:50:25.263Z,0.00
2022-11-17T03:51:25.227Z,0.00
2022-11-17T03:52:25.144Z,0.00
2022-11-17T03:53:25.050Z,0.00
2022-11-17T03:54:25.014Z,0.00
2022-11-17T03:55:24.944Z,0.00
2022-11-17T03:56:24.858Z,0.00
2022-11-17T03:57:24.820Z,0.00
2022-11-17T03:58:24.736Z,0.00
2022-11-17T03:59:24.680Z,0.00
2022-11-17T04:00:24.592Z,0.00
2022-11-17T04:01:24.560Z,0.00
2022-11-17T04:02:24.498Z,0.00
2022-11-17T04:03:24.425Z,0.00
2022-11-17T04:04:24.334Z,0.00
2022-11-17T04:05:24.290Z,0.00
2022-11-17T04:06:24.216Z,0.00
2022-11-17T04:07:24.240Z,0.00
2022-11-17T04:08:24.098Z,0.00
2022-11-17T04:09:24.741Z,0.00
2022-11-17T04:10:23.965Z,0.00
2022-11-17T04:11:23.902Z,0.00
2022-11-17T04:12:23.841Z,0.00
2022-11-17T04:13:23.782Z,0.00
2022-11-17T04:14:23.709Z,0.00
2022-11-17T04:15:23.677Z,0.00
2022-11-17T04:16:23.573Z,0.00
2022-11-17T04:17:23.519Z,0.00
2022-11-17T04:18:23.459Z,0.00
2022-11-17T04:19:23.371Z,0.00
2022-11-17T04:20:23.328Z,0.00
2022-11-17T04:21:23.278Z,0.00
2022-11-17T04:22:23.208Z,0.00
2022-11-17T04:23:23.140Z,0.00
2022-11-17T04:24:23.067Z,0.00
2022-11-17T04:25:23.039Z,0.00
2022-11-17T04:26:22.930Z,0.00
2022-11-17T04:27:23.223Z,0.00
2022-11-17T04:28:22.816Z,0.00
2022-11-17T04:29:22.732Z,1.00
2022-11-17T04:30:22.687Z,0.00
2022-11-17T04:31:22.611Z,0.00
2022-11-17T04:32:22.534Z,0.00
2022-11-17T04:33:22.505Z,0.00
2022-11-17T04:34:22.400Z,1.00
2022-11-17T04:35:22.359Z,0.00
2022-11-17T04:36:22.280Z,0.00
2022-11-17T04:37:22.241Z,0.00
2022-11-17T04:38:22.161Z,0.00
2022-11-17T04:39:22.119Z,0.00
2022-11-17T04:40:22.047Z,0.00
2022-11-17T04:41:21.968Z,0.00
2022-11-17T04:42:21.912Z,0.00
2022-11-17T04:43:21.838Z,0.00
2022-11-17T04:44:21.774Z,0.00
2022-11-17T04:45:21.744Z,0.00
2022-11-17T04:46:21.647Z,0.00
2022-11-17T04:47:21.588Z,0.00
2022-11-17T04:48:21.520Z,0.00
2022-11-17T04:49:21.485Z,0.00
2022-11-17T04:50:21.402Z,0.00
2022-11-17T04:51:21.353Z,0.00
2022-11-17T04:52:25.415Z,0.00
2022-11-17T04:53:21.210Z,0.00
2022-11-17T04:54:21.139Z,0.00
2022-11-17T04:55:21.088Z,0.00
2022-11-17T04:56:20.997Z,0.00
2022-11-17T04:57:21.002Z,0.00
2022-11-17T04:58:20.882Z,0.00
2022-11-17T04:59:20.815Z,0.00
2022-11-17T05:00:20.774Z,0.00
2022-11-17T05:01:20.687Z,0.00
2022-11-17T05:02:20.716Z,0.00
2022-11-17T05:03:20.572Z,0.00
2022-11-17T05:04:20.530Z,0.00
2022-11-17T05:05:20.422Z,0.00
2022-11-17T05:06:20.379Z,0.00
2022-11-17T05:07:20.311Z,1.00
2022-11-17T05:08:21.230Z,0.00
2022-11-17T05:09:20.208Z,0.00
2022-11-17T05:10:20.137Z,0.00
2022-11-17T05:11:20.803Z,0.00
2022-11-17T05:12:19.974Z,0.00
2022-11-17T05:13:19.914Z,0.00
2022-11-17T05:14:19.858Z,0.00
2022-11-17T05:15:19.841Z,0.00
2022-11-17T05:16:19.752Z,0.00
2022-11-17T05:17:19.665Z,0.00
2022-11-17T05:18:19.553Z,1.00
2022-11-17T05:19:19.488Z,1.00
2022-11-17T05:20:19.423Z,1.00
2022-11-17T05:21:19.441Z,0.00
2022-11-17T05:22:19.354Z,0.00
2022-11-17T05:23:19.291Z,0.00
2022-11-17T05:24:19.231Z,0.00
2022-11-17T05:25:19.167Z,0.00
2022-11-17T05:26:19.095Z,0.00
2022-11-17T05:27:19.066Z,0.00
2022-11-17T05:28:18.976Z,0.00
2022-11-17T05:29:18.911Z,0.00
2022-11-17T05:30:18.825Z,0.00
2022-11-17T05:31:18.765Z,0.00
2022-11-17T05:32:18.659Z,1.00
2022-11-17T05:33:18.900Z,1.00
2022-11-17T05:34:18.567Z,0.00
2022-11-17T05:35:18.513Z,0.00
2022-11-17T05:36:18.450Z,0.00
2022-11-17T05:37:18.397Z,0.00
2022-11-17T05:38:18.303Z,0.00
2022-11-17T05:39:18.269Z,0.00
2022-11-17T05:40:18.219Z,0.00
2022-11-17T05:41:18.130Z,0.00
2022-11-17T05:42:18.072Z,0.00
2022-11-17T05:43:17.989Z,0.00
2022-11-17T05:44:17.964Z,0.00
2022-11-17T05:45:17.853Z,1.00
2022-11-17T05:46:17.818Z,0.00
2022-11-17T05:47:18.220Z,0.00
2022-11-17T05:48:17.695Z,0.00
2022-11-17T05:49:17.613Z,0.00
2022-11-17T05:50:17.548Z,0.00
2022-11-17T05:51:17.514Z,0.00
2022-11-17T05:52:17.436Z,0.00
2022-11-17T05:53:17.359Z,0.00
2022-11-17T05:54:17.313Z,0.00
2022-11-17T05:55:17.242Z,0.00
2022-11-17T05:56:17.171Z,0.00
2022-11-17T05:57:17.117Z,0.00
2022-11-17T05:58:17.043Z,0.00
2022-11-17T05:59:16.963Z,0.00
2022-11-17T06:00:16.907Z,0.00
2022-11-17T06:01:16.860Z,0.00
2022-11-17T06:02:16.807Z,0.00
2022-11-17T06:03:16.734Z,0.00
2022-11-17T06:04:16.713Z,0.00
2022-11-17T06:05:20.195Z,0.00
2022-11-17T06:06:16.524Z,0.00
2022-11-17T06:07:16.523Z,0.00
2022-11-17T06:08:16.398Z,0.00
2022-11-17T06:09:16.344Z,0.00
2022-11-17T06:10:16.264Z,0.00
2022-11-17T06:11:16.226Z,0.00
2022-11-17T06:12:16.171Z,0.00
2022-11-17T06:13:16.092Z,0.00
2022-11-17T06:14:16.014Z,0.00
2022-11-17T06:15:15.965Z,0.00
2022-11-17T06:16:15.913Z,0.00
2022-11-17T06:17:20.585Z,0.00
2022-11-17T06:18:15.789Z,0.00
2022-11-17T06:19:15.726Z,0.00
2022-11-17T06:20:15.652Z,0.00
2022-11-17T06:22:04.483Z,0.00
2022-11-17T06:22:15.511Z,0.00
2022-11-17T06:23:15.464Z,0.00
2022-11-17T06:24:15.352Z,1.00
2022-11-17T06:25:15.330Z,0.00
2022-11-17T06:26:15.271Z,0.00
2022-11-17T06:27:15.174Z,1.00
2022-11-17T06:28:15.098Z,1.00
2022-11-17T06:29:16.319Z,1.00
2022-11-17T06:30:15.138Z,1.00
2022-11-17T06:31:14.886Z,2.00
2022-11-17T06:32:14.828Z,2.00
2022-11-17T06:33:14.787Z,3.00
2022-11-17T06:34:14.652Z,1.00
2022-11-17T06:35:14.624Z,3.00
2022-11-17T06:36:14.557Z,2.00
2022-11-17T06:37:14.489Z,5.00
2022-11-17T06:38:14.434Z,5.00
2022-11-17T06:40:44.823Z,6.00
2022-11-17T06:41:24.483Z,6.00
2022-11-17T06:42:24.412Z,8.00
2022-11-17T06:43:24.337Z,8.00
2022-11-17T06:44:24.275Z,8.00
2022-11-17T06:45:24.216Z,9.00
2022-11-17T06:46:24.134Z,10.00
2022-11-17T06:47:24.092Z,9.00
2022-11-17T06:48:24.041Z,7.00
2022-11-17T06:49:23.960Z,12.00
2022-11-17T06:50:23.922Z,11.00
2022-11-17T06:51:23.840Z,15.00
2022-11-17T06:52:23.753Z,14.00
2022-11-17T06:53:23.759Z,13.00
2022-11-17T06:54:23.666Z,15.00
2022-11-17T06:55:23.593Z,15.00
2022-11-17T06:58:41.912Z,15.00
2022-11-17T06:59:42.802Z,15.00
2022-11-17T07:00:42.800Z,15.00
2022-11-17T07:01:42.709Z,11.00
2022-11-17T07:02:42.637Z,13.00
2022-11-17T07:03:42.597Z,13.00
2022-11-17T07:04:42.484Z,12.00
2022-11-17T07:05:42.446Z,13.00
2022-11-17T07:06:42.350Z,18.00
2022-11-17T07:07:42.325Z,17.00
2022-11-17T07:08:42.216Z,22.00
2022-11-17T07:09:42.159Z,21.00
2022-11-17T07:10:47.924Z,21.00
2022-11-17T07:11:43.456Z,19.00
2022-11-17T07:12:42.848Z,16.00
2022-11-17T07:13:42.929Z,30.00
2022-11-17T07:14:43.359Z,33.00
2022-11-17T07:15:44.097Z,24.00
2022-11-17T07:16:42.768Z,23.00
2022-11-17T07:17:41.687Z,24.00
2022-11-17T07:18:41.584Z,53.00
2022-11-17T07:19:41.542Z,58.00
2022-11-17T07:20:41.484Z,44.00
2022-11-17T07:21:41.370Z,41.00
2022-11-17T07:22:41.354Z,41.00
2022-11-17T07:23:41.295Z,36.00
2022-11-17T07:24:41.196Z,42.00
2022-11-17T07:25:41.126Z,55.00
2022-11-17T07:26:41.053Z,55.00
2022-11-17T07:27:41.007Z,55.00
2022-11-17T07:28:41.924Z,50.00
2022-11-17T07:29:41.851Z,40.00
2022-11-17T07:30:40.842Z,49.00
2022-11-17T07:31:40.709Z,45.00
2022-11-17T07:32:40.668Z,62.00
2022-11-17T07:34:01.627Z,59.00
2022-11-17T07:34:40.556Z,64.00
2022-11-17T07:35:40.510Z,55.00
2022-11-17T07:36:41.451Z,50.00
2022-11-17T07:37:40.354Z,27.00
2022-11-17T07:38:40.799Z,35.00
2022-11-17T07:39:40.432Z,56.00
2022-11-17T07:40:41.349Z,42.00
2022-11-17T07:41:40.875Z,91.00
2022-11-17T07:42:40.105Z,108.00
2022-11-17T07:43:39.977Z,121.00
2022-11-17T07:44:39.902Z,134.00
2022-11-17T07:45:40.164Z,121.00
2022-11-17T07:46:40.350Z,120.00
2022-11-17T07:47:39.715Z,109.00
2022-11-17T07:48:39.846Z,101.00
2022-11-17T07:49:39.619Z,84.00
2022-11-17T07:50:39.552Z,109.00
2022-11-17T07:51:41.939Z,143.00
2022-11-17T07:52:41.630Z,152.00
2022-11-17T07:53:39.334Z,214.00
2022-11-17T07:54:39.261Z,186.00
2022-11-17T07:55:39.233Z,164.00
2022-11-17T07:56:39.127Z,265.00
2022-11-17T07:57:39.108Z,294.00
2022-11-17T07:58:39.500Z,312.00
2022-11-17T07:59:38.940Z,352.00
2022-11-17T08:00:38.915Z,356.00
2022-11-17T08:01:38.800Z,319.00
2022-11-17T08:02:38.736Z,308.00
2022-11-17T08:03:38.790Z,303.00
2022-11-17T08:04:38.656Z,288.00
2022-11-17T08:05:43.360Z,338.00
2022-11-17T08:06:38.517Z,321.00
2022-11-17T08:07:38.510Z,243.00
2022-11-17T08:08:38.812Z,214.00
2022-11-17T08:09:38.321Z,266.00
2022-11-17T08:10:38.275Z,299.00
2022-11-17T08:11:38.163Z,274.00
2022-11-17T08:12:38.126Z,261.00
2022-11-17T08:13:38.078Z,367.00
2022-11-17T08:14:38.019Z,342.00
2022-11-17T08:15:38.219Z,317.00
2022-11-17T08:16:37.839Z,267.00
2022-11-17T08:17:37.775Z,254.00
2022-11-17T08:18:37.960Z,246.00
2022-11-17T08:19:37.673Z,265.00
2022-11-17T08:20:37.644Z,271.00
2022-11-17T08:21:37.570Z,263.00
2022-11-17T08:22:37.452Z,240.00
2022-11-17T08:23:39.344Z,223.00
2022-11-17T08:24:43.838Z,187.00
2022-11-17T08:25:42.837Z,177.00
2022-11-17T08:26:43.785Z,208.00
2022-11-17T08:27:43.336Z,238.00
2022-11-17T08:28:37.933Z,263.00
2022-11-17T08:29:37.922Z,270.00
2022-11-17T08:30:38.385Z,294.00
2022-11-17T08:31:36.913Z,327.00
2022-11-17T08:32:36.839Z,286.00
2022-11-17T08:33:37.085Z,276.00
2022-11-17T08:34:36.710Z,302.00
2022-11-17T08:35:37.877Z,337.00
2022-11-17T08:36:36.567Z,353.00
2022-11-17T08:37:37.918Z,375.00
2022-11-17T08:38:36.739Z,367.00
2022-11-17T08:39:36.363Z,351.00
2022-11-17T08:40:36.289Z,344.00
2022-11-17T08:41:36.328Z,353.00
2022-11-17T08:42:36.200Z,362.00
2022-11-17T08:43:36.140Z,369.00
2022-11-17T08:44:36.041Z,373.00
2022-11-17T08:45:35.990Z,398.00
2022-11-17T08:46:36.096Z,429.00
2022-11-17T08:47:35.880Z,418.00
2022-11-17T08:48:36.177Z,367.00
2022-11-17T08:49:35.721Z,338.00
2022-11-17T08:50:35.674Z,342.00
2022-11-17T08:51:35.666Z,377.00
2022-11-17T08:52:35.536Z,398.00
2022-11-17T08:53:35.451Z,413.00
2022-11-17T08:54:35.414Z,397.00
2022-11-17T08:55:39.646Z,443.00
2022-11-17T08:56:35.309Z,433.00
2022-11-17T08:57:35.200Z,444.00
2022-11-17T08:58:35.575Z,435.00
2022-11-17T08:59:35.046Z,438.00
2022-11-17T09:00:35.178Z,408.00
2022-11-17T09:01:34.987Z,336.00
2022-11-17T09:02:34.903Z,250.00
2022-11-17T09:03:34.863Z,341.00
2022-11-17T09:04:34.756Z,481.00
2022-11-17T09:05:34.649Z,473.00
2022-11-17T09:06:34.604Z,425.00
2022-11-17T09:07:35.079Z,464.00
2022-11-17T09:08:49.925Z,536.00
2022-11-17T09:09:34.494Z,394.00
2022-11-17T09:10:34.312Z,355.00
2022-11-17T09:11:34.312Z,290.00
2022-11-17T09:12:34.242Z,265.00
2022-11-17T09:13:34.135Z,181.00
2022-11-17T09:14:34.104Z,321.00
2022-11-17T09:15:34.051Z,418.00
2022-11-17T09:16:33.979Z,506.00
2022-11-17T09:17:33.986Z,510.00
2022-11-17T09:18:34.183Z,541.00
2022-11-17T09:19:33.852Z,439.00
2022-11-17T09:20:33.753Z,347.00
2022-11-17T09:21:54.651Z,350.00
2022-11-17T09:22:33.554Z,368.00
2022-11-17T09:23:33.858Z,360.00
2022-11-17T09:24:33.484Z,341.00
2022-11-17T09:25:33.402Z,581.00
2022-11-17T09:26:33.303Z,670.00
2022-11-17T09:27:33.302Z,673.00
2022-11-17T09:28:33.375Z,658.00
2022-11-17T09:29:33.139Z,673.00
2022-11-17T09:30:33.075Z,836.00
2022-11-17T09:31:33.065Z,932.00
2022-11-17T09:32:32.947Z,892.00
2022-11-17T09:33:32.858Z,886.00
2022-11-17T09:34:32.865Z,1141.00
2022-11-17T09:35:32.779Z,1138.00
2022-11-17T09:36:32.750Z,1076.00
2022-11-17T09:37:32.611Z,1076.00
2022-11-17T09:38:32.840Z,1069.00
2022-11-17T09:39:32.496Z,1078.00
2022-11-17T09:40:37.711Z,1080.00
2022-11-17T09:41:32.376Z,1118.00
2022-11-17T09:42:32.313Z,1094.00
2022-11-17T09:43:32.235Z,1098.00
2022-11-17T09:44:32.820Z,1093.00
2022-11-17T09:45:32.095Z,1078.00
2022-11-17T09:46:32.037Z,1110.00
2022-11-17T09:47:31.977Z,1223.00
2022-11-17T09:48:41.128Z,1271.00
2022-11-17T09:49:31.819Z,1349.00
2022-11-17T09:50:32.311Z,1309.00
2022-11-17T09:51:31.768Z,1251.00
2022-11-17T09:52:31.630Z,1144.00
2022-11-17T09:53:31.577Z,1009.00
2022-11-17T09:54:31.556Z,829.00
2022-11-17T09:55:34.438Z,614.00
2022-11-17T09:56:31.385Z,468.00
2022-11-17T09:59:50.880Z,306.00
2022-11-17T10:00:50.616Z,331.00
2022-11-17T10:01:50.640Z,271.00
2022-11-17T10:02:50.447Z,218.00
2022-11-17T10:03:50.745Z,304.00
2022-11-17T10:04:50.363Z,380.00
2022-11-17T10:05:50.379Z,331.00
2022-11-17T10:06:50.322Z,299.00
2022-11-17T10:07:50.157Z,376.00
2022-11-17T10:08:50.103Z,418.00
2022-11-17T10:09:50.008Z,556.00
2022-11-17T10:10:49.973Z,570.00
2022-11-17T10:11:50.186Z,434.00
2022-11-17T10:12:49.863Z,409.00
2022-11-17T10:13:49.753Z,452.00
2022-11-17T10:14:49.785Z,327.00
2022-11-17T10:15:50.648Z,254.00
2022-11-17T10:16:58.653Z,487.00
2022-11-17T10:18:10.534Z,501.00
2022-11-17T10:18:49.494Z,421.00
2022-11-17T10:19:49.374Z,367.00
2022-11-17T10:20:49.313Z,342.00
2022-11-17T10:21:49.269Z,309.00
2022-11-17T10:22:49.215Z,427.00
2022-11-17T10:23:49.333Z,501.00
2022-11-17T10:24:49.104Z,485.00
2022-11-17T10:25:49.025Z,404.00
2022-11-17T10:26:48.974Z,365.00
2022-11-17T10:27:48.935Z,309.00
2022-11-17T10:28:48.810Z,489.00
2022-11-17T10:29:48.766Z,401.00
2022-11-17T10:30:48.653Z,394.00
2022-11-17T10:31:48.673Z,317.00
2022-11-17T10:32:48.704Z,303.00
2022-11-17T10:33:48.595Z,404.00
2022-11-17T10:34:48.548Z,360.00
2022-11-17T10:35:48.360Z,299.00
2022-11-17T10:36:48.362Z,227.00
2022-11-17T10:37:49.686Z,191.00
2022-11-17T10:38:48.426Z,151.00
2022-11-17T10:39:48.572Z,100.00
2022-11-17T10:40:48.079Z,62.00
2022-11-17T10:41:47.975Z,270.00
2022-11-17T10:42:47.925Z,430.00
2022-11-17T10:43:48.225Z,442.00
2022-11-17T10:44:48.669Z,447.00
2022-11-17T10:45:47.712Z,426.00
2022-11-17T10:46:47.773Z,496.00
2022-11-17T10:47:47.592Z,494.00
2022-11-17T10:48:47.662Z,434.00
2022-11-17T10:49:48.154Z,382.00
2022-11-17T10:50:47.408Z,331.00
2022-11-17T10:51:47.881Z,237.00
2022-11-17T10:52:47.876Z,228.00
2022-11-17T10:53:49.526Z,309.00
2022-11-17T10:54:47.187Z,308.00
2022-11-17T10:55:48.803Z,324.00
2022-11-17T10:56:47.442Z,307.00
2022-11-17T10:57:46.967Z,332.00
2022-11-17T10:58:49.027Z,379.00
2022-11-17T10:59:51.998Z,302.00
2022-11-17T11:00:46.837Z,356.00
2022-11-17T11:01:49.339Z,391.00
2022-11-17T11:02:46.606Z,421.00
2022-11-17T11:03:46.599Z,414.00
2022-11-17T11:04:46.501Z,430.00
2022-11-17T11:05:46.753Z,489.00
2022-11-17T11:06:47.240Z,553.00
2022-11-17T11:07:47.333Z,548.00
2022-11-17T11:08:47.829Z,537.00
2022-11-17T11:09:46.239Z,510.00
2022-11-17T11:10:47.428Z,502.00
2022-11-17T11:11:49.155Z,491.00
2022-11-17T11:12:45.950Z,496.00
2022-11-17T11:13:46.158Z,490.00
2022-11-17T11:14:45.839Z,490.00
2022-11-17T11:15:48.707Z,512.00
2022-11-17T11:16:48.267Z,568.00
2022-11-17T11:17:45.857Z,619.00
2022-11-17T11:18:45.615Z,639.00
2022-11-17T11:19:45.533Z,626.00
2022-11-17T11:20:46.666Z,602.00
2022-11-17T11:21:45.454Z,547.00
2022-11-17T11:22:45.358Z,511.00
2022-11-17T11:23:45.481Z,485.00
2022-11-17T11:24:47.791Z,449.00
2022-11-17T11:25:47.570Z,430.00
2022-11-17T11:26:46.680Z,381.00
2022-11-17T11:27:45.049Z,358.00
2022-11-17T11:28:50.127Z,417.00
2022-11-17T11:29:46.136Z,446.00
2022-11-17T11:30:44.879Z,414.00
2022-11-17T11:31:44.753Z,428.00
2022-11-17T11:32:46.345Z,463.00
2022-11-17T11:33:44.742Z,483.00
2022-11-17T11:34:44.599Z,498.00
2022-11-17T11:35:44.503Z,515.00
2022-11-17T11:36:46.868Z,514.00
2022-11-17T11:37:44.663Z,487.00
2022-11-17T11:38:44.333Z,471.00
2022-11-17T11:39:45.654Z,430.00
2022-11-17T11:40:44.215Z,416.00
2022-11-17T11:41:44.119Z,420.00
2022-11-17T11:42:44.067Z,450.00
2022-11-17T11:43:43.997Z,427.00
2022-11-17T11:44:43.941Z,375.00
2022-11-17T11:45:43.892Z,359.00
2022-11-17T11:46:43.850Z,385.00
2022-11-17T11:50:02.119Z,520.00
2022-11-17T11:51:03.038Z,474.00
2022-11-17T11:52:02.941Z,503.00
2022-11-17T11:53:02.890Z,578.00
2022-11-17T11:54:02.823Z,647.00
2022-11-17T11:55:02.866Z,753.00
2022-11-17T11:56:02.695Z,867.00
2022-11-17T11:57:03.587Z,946.00
2022-11-17T11:58:02.592Z,984.00
2022-11-17T11:59:02.537Z,1052.00
2022-11-17T12:00:04.428Z,1201.00
2022-11-17T12:01:02.395Z,1298.00
2022-11-17T12:02:02.396Z,1426.00
2022-11-17T12:03:02.341Z,1610.00
2022-11-17T12:04:02.207Z,1726.00
2022-11-17T12:05:02.200Z,1890.00
2022-11-17T12:06:02.101Z,1952.00
2022-11-17T12:07:24.360Z,1762.00
2022-11-17T12:08:06.008Z,1567.00
2022-11-17T12:09:01.903Z,1500.00
2022-11-17T12:10:01.852Z,1560.00
2022-11-17T12:11:02.857Z,1640.00
2022-11-17T12:12:01.725Z,1720.00
2022-11-17T12:13:22.565Z,1599.00
2022-11-17T12:14:01.564Z,1770.00
2022-11-17T12:15:01.673Z,1797.00
2022-11-17T12:16:01.423Z,1751.00
2022-11-17T12:17:01.362Z,1565.00
2022-11-17T12:18:01.302Z,1548.00
2022-11-17T12:19:01.278Z,1454.00
2022-11-17T12:20:04.613Z,1598.00
2022-11-17T12:21:01.156Z,1677.00
2022-11-17T12:22:01.037Z,1813.00
2022-11-17T12:23:00.970Z,1451.00
2022-11-17T12:24:00.911Z,1390.00
2022-11-17T12:25:00.919Z,1340.00
2022-11-17T12:26:00.817Z,1321.00
2022-11-17T12:27:00.724Z,1252.00
2022-11-17T12:28:00.681Z,1302.00
2022-11-17T12:29:00.602Z,1343.00
2022-11-17T12:30:01.204Z,1317.00
2022-11-17T12:31:05.063Z,1265.00
2022-11-17T12:32:00.394Z,1189.00
2022-11-17T12:33:00.373Z,1186.00
2022-11-17T12:34:00.299Z,1216.00
2022-11-17T12:35:00.196Z,1371.00
2022-11-17T12:36:00.118Z,1437.00
2022-11-17T12:37:00.129Z,1472.00
2022-11-17T12:38:00.039Z,1458.00
2022-11-17T12:38:59.968Z,1442.00
2022-11-17T12:39:59.924Z,1421.00
2022-11-17T12:40:59.811Z,1379.00
2022-11-17T12:41:59.720Z,1338.00
2022-11-17T12:45:18.072Z,1254.00
2022-11-17T12:46:18.996Z,1255.00
2022-11-17T12:47:18.904Z,1265.00
2022-11-17T12:48:33.512Z,1268.00
2022-11-17T12:49:18.829Z,1190.00
2022-11-17T12:50:18.804Z,1206.00
2022-11-17T12:51:18.666Z,1162.00
2022-11-17T12:52:18.631Z,1213.00
2022-11-17T12:53:18.508Z,1213.00
2022-11-17T12:54:18.485Z,1193.00
2022-11-17T12:55:18.406Z,1179.00
2022-11-17T12:56:18.346Z,1128.00
2022-11-17T12:57:18.255Z,1099.00
2022-11-17T12:58:18.205Z,1104.00
2022-11-17T12:59:18.154Z,1153.00
2022-11-17T13:00:18.114Z,1186.00
2022-11-17T13:01:18.101Z,1249.00
2022-11-17T13:02:20.408Z,1190.00
2022-11-17T13:03:17.906Z,1165.00
2022-11-17T13:04:17.834Z,1356.00
2022-11-17T13:05:17.768Z,1364.00
2022-11-17T13:06:35.055Z,1324.00
2022-11-17T13:07:17.651Z,1085.00
2022-11-17T13:08:17.633Z,848.00
2022-11-17T13:09:17.514Z,753.00